sensor_id;sensor_type;location;lat;lon;timestamp;P1;P2;P0
31330;PMS5003;34067;39.548;-76.088;2023-03-03T00:00:24;9;9;
31330;PMS5003;34067;39.548;-76.088;2023-03-03T00:02:53;9;9;
31330;PMS5003;34067;39.548;-76.088;2023-03-03T00:05:24;9;9;
31330;PMS5003;34067;39.548;-76.088;2023-03-03T00:07:52;10;9;
31330;PMS5003;34067;39.548;-76.088;2023-03-03T00:10:21;9;9;
31330;PMS5003;34067;39.548;-76.088;2023-03-03T00:12:48;8;8;
31330;PMS5003;34067;39.548;-76.088;2023-03-03T00:15:18;9;9;
31330;PMS5003;34067;39.548;-76.088;2023-03-03T00:17:48;10;10;
31330;PMS5003;34067;39.548;-76.088;2023-03-03T00:20:32;10;9;
31330;PMS5003;34067;39.548;-76.088;2023-03-03T00:23:11;10;10;
31330;PMS5003;34067;39.548;-76.088;2023-03-03T00:25:45;12;9;
31330;PMS5003;34067;39.548;-76.088;2023-03-03T00:28:21;13;11;
31330;PMS5003;34067;39.548;-76.088;2023-03-03T00:30:52;11;11;
31330;PMS5003;34067;39.548;-76.088;2023-03-03T00:33:24;11;10;
31330;PMS5003;34067;39.548;-76.088;2023-03-03T00:35:55;12;12;
31330;PMS5003;34067;39.548;-76.088;2023-03-03T00:38:27;8;6;
31330;PMS5003;34067;39.548;-76.088;2023-03-03T00:40:55;9;8;
31330;PMS5003;34067;39.548;-76.088;2023-03-03T00:43:24;7;6;
31330;PMS5003;34067;39.548;-76.088;2023-03-03T00:46:01;7;6;
31330;PMS5003;34067;39.548;-76.088;2023-03-03T00:48:29;8;7;
31330;PMS5003;34067;39.548;-76.088;2023-03-03T00:51:09;6;6;
31330;PMS5003;34067;39.548;-76.088;2023-03-03T00:53:52;7;7;
31330;PMS5003;34067;39.548;-76.088;2023-03-03T00:56:21;8;7;
31330;PMS5003;34067;39.548;-76.088;2023-03-03T00:58:50;8;8;
31330;PMS5003;34067;39.548;-76.088;2023-03-03T01:01:18;8;7;
31330;PMS5003;34067;39.548;-76.088;2023-03-03T01:03:47;8;6;
31330;PMS5003;34067;39.548;-76.088;2023-03-03T01:06:15;7;7;
31330;PMS5003;34067;39.548;-76.088;2023-03-03T01:08:43;8;8;
31330;PMS5003;34067;39.548;-76.088;2023-03-03T01:11:12;11;11;
31330;PMS5003;34067;39.548;-76.088;2023-03-03T01:13:46;9;7;
31330;PMS5003;34067;39.548;-76.088;2023-03-03T01:16:16;7;7;
31330;PMS5003;34067;39.548;-76.088;2023-03-03T01:18:45;7;7;
31330;PMS5003;34067;39.548;-76.088;2023-03-03T01:21:13;11;10;
31330;PMS5003;34067;39.548;-76.088;2023-03-03T01:23:41;10;10;
31330;PMS5003;34067;39.548;-76.088;2023-03-03T01:26:10;11;11;
31330;PMS5003;34067;39.548;-76.088;2023-03-03T01:28:38;11;10;
31330;PMS5003;34067;39.548;-76.088;2023-03-03T01:31:06;16;14;
31330;PMS5003;34067;39.548;-76.088;2023-03-03T01:33:35;45;41;
31330;PMS5003;34067;39.548;-76.088;2023-03-03T01:36:03;10;9;
31330;PMS5003;34067;39.548;-76.088;2023-03-03T01:38:34;12;10;
31330;PMS5003;34067;39.548;-76.088;2023-03-03T01:41:03;15;13;
31330;PMS5003;34067;39.548;-76.088;2023-03-03T01:43:32;20;19;
31330;PMS5003;34067;39.548;-76.088;2023-03-03T01:47:05;35;34;
31330;PMS5003;34067;39.548;-76.088;2023-03-03T01:49:36;8;8;
31330;PMS5003;34067;39.548;-76.088;2023-03-03T01:52:10;12;11;
31330;PMS5003;34067;39.548;-76.088;2023-03-03T01:54:40;12;11;
31330;PMS5003;34067;39.548;-76.088;2023-03-03T01:57:12;8;8;
31330;PMS5003;34067;39.548;-76.088;2023-03-03T01:59:43;13;12;
31330;PMS5003;34067;39.548;-76.088;2023-03-03T02:02:14;17;12;
31330;PMS5003;34067;39.548;-76.088;2023-03-03T02:04:43;10;10;
31330;PMS5003;34067;39.548;-76.088;2023-03-03T02:07:11;10;10;
31330;PMS5003;34067;39.548;-76.088;2023-03-03T02:09:45;14;13;
31330;PMS5003;34067;39.548;-76.088;2023-03-03T02:12:21;11;9;
31330;PMS5003;34067;39.548;-76.088;2023-03-03T02:14:57;12;11;
31330;PMS5003;34067;39.548;-76.088;2023-03-03T02:17:25;19;15;
31330;PMS5003;34067;39.548;-76.088;2023-03-03T02:19:57;14;12;
31330;PMS5003;34067;39.548;-76.088;2023-03-03T02:22:35;10;10;
31330;PMS5003;34067;39.548;-76.088;2023-03-03T02:25:10;13;10;
31330;PMS5003;34067;39.548;-76.088;2023-03-03T02:27:46;10;8;
31330;PMS5003;34067;39.548;-76.088;2023-03-03T02:30:17;9;8;
31330;PMS5003;34067;39.548;-76.088;2023-03-03T02:32:50;9;9;
31330;PMS5003;34067;39.548;-76.088;2023-03-03T02:35:27;7;7;
31330;PMS5003;34067;39.548;-76.088;2023-03-03T02:37:59;10;8;
31330;PMS5003;34067;39.548;-76.088;2023-03-03T02:40:41;8;8;
31330;PMS5003;34067;39.548;-76.088;2023-03-03T02:43:18;8;7;
31330;PMS5003;34067;39.548;-76.088;2023-03-03T02:45:50;6;6;
31330;PMS5003;34067;39.548;-76.088;2023-03-03T02:48:18;6;5;
31330;PMS5003;34067;39.548;-76.088;2023-03-03T02:50:46;8;8;
31330;PMS5003;34067;39.548;-76.088;2023-03-03T02:53:14;5;5;
31330;PMS5003;34067;39.548;-76.088;2023-03-03T02:55:42;7;7;
31330;PMS5003;34067;39.548;-76.088;2023-03-03T02:58:11;8;7;
31330;PMS5003;34067;39.548;-76.088;2023-03-03T03:00:39;9;7;
31330;PMS5003;34067;39.548;-76.088;2023-03-03T03:03:07;6;6;
31330;PMS5003;34067;39.548;-76.088;2023-03-03T03:05:35;8;7;
31330;PMS5003;34067;39.548;-76.088;2023-03-03T03:08:04;9;9;
31330;PMS5003;34067;39.548;-76.088;2023-03-03T03:10:32;7;7;
31330;PMS5003;34067;39.548;-76.088;2023-03-03T03:13:01;9;9;
31330;PMS5003;34067;39.548;-76.088;2023-03-03T03:15:30;12;12;
31330;PMS5003;34067;39.548;-76.088;2023-03-03T03:17:58;9;8;
31330;PMS5003;34067;39.548;-76.088;2023-03-03T03:20:27;11;10;
31330;PMS5003;34067;39.548;-76.088;2023-03-03T03:22:55;9;9;
31330;PMS5003;34067;39.548;-76.088;2023-03-03T03:25:23;9;9;
31330;PMS5003;34067;39.548;-76.088;2023-03-03T03:27:52;9;8;
31330;PMS5003;34067;39.548;-76.088;2023-03-03T03:30:20;9;9;
31330;PMS5003;34067;39.548;-76.088;2023-03-03T03:32:48;10;9;
31330;PMS5003;34067;39.548;-76.088;2023-03-03T03:35:16;11;10;
31330;PMS5003;34067;39.548;-76.088;2023-03-03T03:37:44;11;9;
31330;PMS5003;34067;39.548;-76.088;2023-03-03T03:40:13;10;9;
31330;PMS5003;34067;39.548;-76.088;2023-03-03T03:42:42;13;11;
31330;PMS5003;34067;39.548;-76.088;2023-03-03T03:45:10;13;10;
31330;PMS5003;34067;39.548;-76.088;2023-03-03T03:47:39;13;11;
31330;PMS5003;34067;39.548;-76.088;2023-03-03T03:50:08;14;13;
31330;PMS5003;34067;39.548;-76.088;2023-03-03T03:52:36;10;8;
31330;PMS5003;34067;39.548;-76.088;2023-03-03T03:55:05;13;9;
31330;PMS5003;34067;39.548;-76.088;2023-03-03T03:57:33;10;10;
31330;PMS5003;34067;39.548;-76.088;2023-03-03T04:00:03;9;8;
31330;PMS5003;34067;39.548;-76.088;2023-03-03T04:02:32;9;9;
31330;PMS5003;34067;39.548;-76.088;2023-03-03T04:05:01;8;7;
31330;PMS5003;34067;39.548;-76.088;2023-03-03T04:07:29;13;13;
31330;PMS5003;34067;39.548;-76.088;2023-03-03T04:09:58;12;10;
31330;PMS5003;34067;39.548;-76.088;2023-03-03T04:12:26;8;7;
31330;PMS5003;34067;39.548;-76.088;2023-03-03T04:14:54;11;10;
31330;PMS5003;34067;39.548;-76.088;2023-03-03T04:17:22;11;11;
31330;PMS5003;34067;39.548;-76.088;2023-03-03T04:19:51;10;9;
31330;PMS5003;34067;39.548;-76.088;2023-03-03T04:22:19;10;9;
31330;PMS5003;34067;39.548;-76.088;2023-03-03T04:24:47;14;13;
31330;PMS5003;34067;39.548;-76.088;2023-03-03T04:27:15;11;9;
31330;PMS5003;34067;39.548;-76.088;2023-03-03T04:29:44;11;9;
31330;PMS5003;34067;39.548;-76.088;2023-03-03T04:32:11;15;14;
31330;PMS5003;34067;39.548;-76.088;2023-03-03T04:34:39;11;9;
31330;PMS5003;34067;39.548;-76.088;2023-03-03T04:37:07;12;12;
31330;PMS5003;34067;39.548;-76.088;2023-03-03T04:39:35;11;11;
31330;PMS5003;34067;39.548;-76.088;2023-03-03T04:42:04;12;11;
31330;PMS5003;34067;39.548;-76.088;2023-03-03T04:44:32;10;10;
31330;PMS5003;34067;39.548;-76.088;2023-03-03T04:47:00;13;13;
31330;PMS5003;34067;39.548;-76.088;2023-03-03T04:49:28;12;12;
31330;PMS5003;34067;39.548;-76.088;2023-03-03T04:51:57;11;11;
31330;PMS5003;34067;39.548;-76.088;2023-03-03T04:54:25;10;10;
31330;PMS5003;34067;39.548;-76.088;2023-03-03T04:56:54;13;11;
31330;PMS5003;34067;39.548;-76.088;2023-03-03T04:59:22;13;13;
31330;PMS5003;34067;39.548;-76.088;2023-03-03T05:01:50;12;11;
31330;PMS5003;34067;39.548;-76.088;2023-03-03T05:04:19;16;13;
31330;PMS5003;34067;39.548;-76.088;2023-03-03T05:06:47;16;13;
31330;PMS5003;34067;39.548;-76.088;2023-03-03T05:09:15;14;14;
31330;PMS5003;34067;39.548;-76.088;2023-03-03T05:11:44;13;12;
31330;PMS5003;34067;39.548;-76.088;2023-03-03T05:14:12;17;16;
31330;PMS5003;34067;39.548;-76.088;2023-03-03T05:16:40;14;12;
31330;PMS5003;34067;39.548;-76.088;2023-03-03T05:19:07;18;14;
31330;PMS5003;34067;39.548;-76.088;2023-03-03T05:21:36;14;13;
31330;PMS5003;34067;39.548;-76.088;2023-03-03T05:24:04;13;12;
31330;PMS5003;34067;39.548;-76.088;2023-03-03T05:26:32;16;14;
31330;PMS5003;34067;39.548;-76.088;2023-03-03T05:29:00;13;12;
31330;PMS5003;34067;39.548;-76.088;2023-03-03T05:31:28;11;10;
31330;PMS5003;34067;39.548;-76.088;2023-03-03T05:33:57;15;11;
31330;PMS5003;34067;39.548;-76.088;2023-03-03T05:36:25;16;16;
31330;PMS5003;34067;39.548;-76.088;2023-03-03T05:38:53;10;10;
31330;PMS5003;34067;39.548;-76.088;2023-03-03T05:41:21;13;12;
31330;PMS5003;34067;39.548;-76.088;2023-03-03T05:43:49;14;14;
31330;PMS5003;34067;39.548;-76.088;2023-03-03T05:46:18;12;12;
31330;PMS5003;34067;39.548;-76.088;2023-03-03T05:48:46;15;15;
31330;PMS5003;34067;39.548;-76.088;2023-03-03T05:51:14;15;15;
31330;PMS5003;34067;39.548;-76.088;2023-03-03T05:53:42;15;14;
31330;PMS5003;34067;39.548;-76.088;2023-03-03T05:56:10;16;15;
31330;PMS5003;34067;39.548;-76.088;2023-03-03T05:58:38;14;12;
31330;PMS5003;34067;39.548;-76.088;2023-03-03T06:03:14;14;13;
31330;PMS5003;34067;39.548;-76.088;2023-03-03T06:05:42;17;16;
31330;PMS5003;34067;39.548;-76.088;2023-03-03T06:08:11;13;11;
31330;PMS5003;34067;39.548;-76.088;2023-03-03T06:10:38;11;11;
31330;PMS5003;34067;39.548;-76.088;2023-03-03T06:13:07;13;10;
31330;PMS5003;34067;39.548;-76.088;2023-03-03T06:15:35;15;14;
31330;PMS5003;34067;39.548;-76.088;2023-03-03T06:18:03;11;10;
31330;PMS5003;34067;39.548;-76.088;2023-03-03T06:20:32;15;14;
31330;PMS5003;34067;39.548;-76.088;2023-03-03T06:23:00;16;15;
31330;PMS5003;34067;39.548;-76.088;2023-03-03T06:25:28;14;12;
31330;PMS5003;34067;39.548;-76.088;2023-03-03T06:27:56;15;14;
31330;PMS5003;34067;39.548;-76.088;2023-03-03T06:30:24;16;13;
31330;PMS5003;34067;39.548;-76.088;2023-03-03T06:32:53;15;15;
31330;PMS5003;34067;39.548;-76.088;2023-03-03T06:35:21;16;14;
31330;PMS5003;34067;39.548;-76.088;2023-03-03T06:37:49;13;13;
31330;PMS5003;34067;39.548;-76.088;2023-03-03T06:40:17;14;13;
31330;PMS5003;34067;39.548;-76.088;2023-03-03T06:42:45;16;13;
31330;PMS5003;34067;39.548;-76.088;2023-03-03T06:45:13;13;13;
31330;PMS5003;34067;39.548;-76.088;2023-03-03T06:47:41;13;13;
31330;PMS5003;34067;39.548;-76.088;2023-03-03T06:50:09;18;17;
31330;PMS5003;34067;39.548;-76.088;2023-03-03T06:52:38;15;12;
31330;PMS5003;34067;39.548;-76.088;2023-03-03T06:55:10;15;13;
31330;PMS5003;34067;39.548;-76.088;2023-03-03T06:57:49;18;15;
31330;PMS5003;34067;39.548;-76.088;2023-03-03T07:00:18;17;16;
31330;PMS5003;34067;39.548;-76.088;2023-03-03T07:02:55;16;14;
31330;PMS5003;34067;39.548;-76.088;2023-03-03T07:05:26;13;13;
31330;PMS5003;34067;39.548;-76.088;2023-03-03T07:07:55;21;15;
31330;PMS5003;34067;39.548;-76.088;2023-03-03T07:10:26;15;14;
31330;PMS5003;34067;39.548;-76.088;2023-03-03T07:12:57;16;16;
31330;PMS5003;34067;39.548;-76.088;2023-03-03T07:15:33;16;15;
31330;PMS5003;34067;39.548;-76.088;2023-03-03T07:18:01;19;16;
31330;PMS5003;34067;39.548;-76.088;2023-03-03T07:20:38;18;17;
31330;PMS5003;34067;39.548;-76.088;2023-03-03T07:23:10;17;15;
31330;PMS5003;34067;39.548;-76.088;2023-03-03T07:25:47;16;16;
31330;PMS5003;34067;39.548;-76.088;2023-03-03T07:28:18;16;14;
31330;PMS5003;34067;39.548;-76.088;2023-03-03T07:30:50;16;12;
31330;PMS5003;34067;39.548;-76.088;2023-03-03T07:33:50;16;15;
31330;PMS5003;34067;39.548;-76.088;2023-03-03T07:36:23;20;20;
31330;PMS5003;34067;39.548;-76.088;2023-03-03T07:38:55;16;14;
31330;PMS5003;34067;39.548;-76.088;2023-03-03T07:41:25;17;15;
31330;PMS5003;34067;39.548;-76.088;2023-03-03T07:43:54;13;12;
31330;PMS5003;34067;39.548;-76.088;2023-03-03T07:46:34;18;17;
31330;PMS5003;34067;39.548;-76.088;2023-03-03T07:49:10;17;14;
31330;PMS5003;34067;39.548;-76.088;2023-03-03T07:51:51;16;14;
31330;PMS5003;34067;39.548;-76.088;2023-03-03T07:54:26;17;16;
31330;PMS5003;34067;39.548;-76.088;2023-03-03T07:57:04;14;14;
31330;PMS5003;34067;39.548;-76.088;2023-03-03T07:59:46;15;15;
31330;PMS5003;34067;39.548;-76.088;2023-03-03T08:02:22;18;17;
31330;PMS5003;34067;39.548;-76.088;2023-03-03T08:04:59;17;15;
31330;PMS5003;34067;39.548;-76.088;2023-03-03T08:07:27;15;14;
31330;PMS5003;34067;39.548;-76.088;2023-03-03T08:09:56;16;16;
31330;PMS5003;34067;39.548;-76.088;2023-03-03T08:12:41;18;16;
31330;PMS5003;34067;39.548;-76.088;2023-03-03T08:15:13;17;16;
31330;PMS5003;34067;39.548;-76.088;2023-03-03T08:17:44;22;18;
31330;PMS5003;34067;39.548;-76.088;2023-03-03T08:20:36;17;17;
31330;PMS5003;34067;39.548;-76.088;2023-03-03T08:23:10;17;15;
31330;PMS5003;34067;39.548;-76.088;2023-03-03T08:25:39;18;15;
31330;PMS5003;34067;39.548;-76.088;2023-03-03T08:28:08;18;16;
31330;PMS5003;34067;39.548;-76.088;2023-03-03T08:30:37;17;16;
31330;PMS5003;34067;39.548;-76.088;2023-03-03T08:33:05;25;20;
31330;PMS5003;34067;39.548;-76.088;2023-03-03T08:35:33;23;21;
31330;PMS5003;34067;39.548;-76.088;2023-03-03T08:38:01;22;19;
31330;PMS5003;34067;39.548;-76.088;2023-03-03T08:40:29;25;23;
31330;PMS5003;34067;39.548;-76.088;2023-03-03T08:42:57;26;26;
31330;PMS5003;34067;39.548;-76.088;2023-03-03T08:45:25;24;20;
31330;PMS5003;34067;39.548;-76.088;2023-03-03T08:47:54;23;19;
31330;PMS5003;34067;39.548;-76.088;2023-03-03T08:50:23;29;26;
31330;PMS5003;34067;39.548;-76.088;2023-03-03T08:52:50;32;30;
31330;PMS5003;34067;39.548;-76.088;2023-03-03T08:55:19;41;39;
31330;PMS5003;34067;39.548;-76.088;2023-03-03T08:57:47;61;60;
31330;PMS5003;34067;39.548;-76.088;2023-03-03T09:00:16;26;24;
31330;PMS5003;34067;39.548;-76.088;2023-03-03T09:00:17;26;24;
31330;PMS5003;34067;39.548;-76.088;2023-03-03T09:02:47;23;22;
31330;PMS5003;34067;39.548;-76.088;2023-03-03T09:05:17;40;39;
31330;PMS5003;34067;39.548;-76.088;2023-03-03T09:07:46;23;21;
31330;PMS5003;34067;39.548;-76.088;2023-03-03T09:10:17;25;20;
31330;PMS5003;34067;39.548;-76.088;2023-03-03T09:12:48;24;22;
31330;PMS5003;34067;39.548;-76.088;2023-03-03T09:15:20;32;23;
31330;PMS5003;34067;39.548;-76.088;2023-03-03T09:17:51;59;56;
31330;PMS5003;34067;39.548;-76.088;2023-03-03T09:20:31;30;25;
31330;PMS5003;34067;39.548;-76.088;2023-03-03T09:23:34;52;49;
31330;PMS5003;34067;39.548;-76.088;2023-03-03T09:26:22;29;27;
31330;PMS5003;34067;39.548;-76.088;2023-03-03T09:29:04;32;29;
31330;PMS5003;34067;39.548;-76.088;2023-03-03T09:31:43;38;33;
31330;PMS5003;34067;39.548;-76.088;2023-03-03T09:34:16;49;47;
31330;PMS5003;34067;39.548;-76.088;2023-03-03T09:36:47;19;19;
31330;PMS5003;34067;39.548;-76.088;2023-03-03T09:39:16;28;24;
31330;PMS5003;34067;39.548;-76.088;2023-03-03T09:41:56;27;26;
31330;PMS5003;34067;39.548;-76.088;2023-03-03T09:44:46;27;23;
31330;PMS5003;34067;39.548;-76.088;2023-03-03T09:47:31;28;24;
31330;PMS5003;34067;39.548;-76.088;2023-03-03T09:50:12;37;33;
31330;PMS5003;34067;39.548;-76.088;2023-03-03T09:52:52;23;19;
31330;PMS5003;34067;39.548;-76.088;2023-03-03T09:55:35;22;20;
31330;PMS5003;34067;39.548;-76.088;2023-03-03T09:58:15;20;19;
31330;PMS5003;34067;39.548;-76.088;2023-03-03T10:00:59;20;19;
31330;PMS5003;34067;39.548;-76.088;2023-03-03T10:03:57;29;27;
31330;PMS5003;34067;39.548;-76.088;2023-03-03T10:06:40;37;34;
31330;PMS5003;34067;39.548;-76.088;2023-03-03T10:09:27;33;33;
31330;PMS5003;34067;39.548;-76.088;2023-03-03T10:12:06;55;52;
31330;PMS5003;34067;39.548;-76.088;2023-03-03T10:14:45;128;126;
31330;PMS5003;34067;39.548;-76.088;2023-03-03T10:17:31;119;116;
31330;PMS5003;34067;39.548;-76.088;2023-03-03T10:20:14;66;63;
31330;PMS5003;34067;39.548;-76.088;2023-03-03T10:23:02;129;129;
31330;PMS5003;34067;39.548;-76.088;2023-03-03T10:25:41;158;155;
31330;PMS5003;34067;39.548;-76.088;2023-03-03T10:28:22;94;93;
31330;PMS5003;34067;39.548;-76.088;2023-03-03T10:31:11;95;94;
31330;PMS5003;34067;39.548;-76.088;2023-03-03T10:33:51;132;132;
31330;PMS5003;34067;39.548;-76.088;2023-03-03T10:36:35;168;168;
31330;PMS5003;34067;39.548;-76.088;2023-03-03T10:39:16;144;141;
31330;PMS5003;34067;39.548;-76.088;2023-03-03T10:42:03;119;116;
31330;PMS5003;34067;39.548;-76.088;2023-03-03T10:44:47;147;143;
31330;PMS5003;34067;39.548;-76.088;2023-03-03T10:47:34;99;97;
31330;PMS5003;34067;39.548;-76.088;2023-03-03T10:50:14;41;40;
31330;PMS5003;34067;39.548;-76.088;2023-03-03T10:52:51;92;90;
31330;PMS5003;34067;39.548;-76.088;2023-03-03T10:55:32;91;91;
31330;PMS5003;34067;39.548;-76.088;2023-03-03T10:59:28;106;105;
31330;PMS5003;34067;39.548;-76.088;2023-03-03T11:02:06;80;78;
31330;PMS5003;34067;39.548;-76.088;2023-03-03T11:04:47;151;151;
31330;PMS5003;34067;39.548;-76.088;2023-03-03T11:07:38;152;152;
31330;PMS5003;34067;39.548;-76.088;2023-03-03T11:10:16;168;168;
31330;PMS5003;34067;39.548;-76.088;2023-03-03T11:13:14;112;112;
31330;PMS5003;34067;39.548;-76.088;2023-03-03T11:15:57;106;105;
31330;PMS5003;34067;39.548;-76.088;2023-03-03T11:18:36;182;181;
31330;PMS5003;34067;39.548;-76.088;2023-03-03T11:21:20;87;85;
31330;PMS5003;34067;39.548;-76.088;2023-03-03T11:23:56;34;32;
31330;PMS5003;34067;39.548;-76.088;2023-03-03T11:26:44;11;11;
31330;PMS5003;34067;39.548;-76.088;2023-03-03T11:29:30;12;10;
31330;PMS5003;34067;39.548;-76.088;2023-03-03T11:32:14;12;10;
31330;PMS5003;34067;39.548;-76.088;2023-03-03T11:34:54;10;9;
31330;PMS5003;34067;39.548;-76.088;2023-03-03T11:37:34;12;12;
31330;PMS5003;34067;39.548;-76.088;2023-03-03T11:40:12;10;9;
31330;PMS5003;34067;39.548;-76.088;2023-03-03T11:42:50;10;9;
31330;PMS5003;34067;39.548;-76.088;2023-03-03T11:45:30;12;11;
31330;PMS5003;34067;39.548;-76.088;2023-03-03T11:48:06;11;10;
31330;PMS5003;34067;39.548;-76.088;2023-03-03T11:50:45;10;9;
31330;PMS5003;34067;39.548;-76.088;2023-03-03T11:53:26;9;8;
31330;PMS5003;34067;39.548;-76.088;2023-03-03T11:56:16;11;10;
31330;PMS5003;34067;39.548;-76.088;2023-03-03T11:58:52;11;10;
31330;PMS5003;34067;39.548;-76.088;2023-03-03T12:01:31;15;10;
31330;PMS5003;34067;39.548;-76.088;2023-03-03T12:04:02;10;9;
31330;PMS5003;34067;39.548;-76.088;2023-03-03T12:06:39;10;8;
31330;PMS5003;34067;39.548;-76.088;2023-03-03T12:09:22;12;10;
31330;PMS5003;34067;39.548;-76.088;2023-03-03T12:12:04;10;9;
31330;PMS5003;34067;39.548;-76.088;2023-03-03T12:14:40;11;9;
31330;PMS5003;34067;39.548;-76.088;2023-03-03T12:17:24;8;6;
31330;PMS5003;34067;39.548;-76.088;2023-03-03T12:20:13;9;9;
31330;PMS5003;34067;39.548;-76.088;2023-03-03T12:22:47;12;11;
31330;PMS5003;34067;39.548;-76.088;2023-03-03T12:25:29;9;9;
31330;PMS5003;34067;39.548;-76.088;2023-03-03T12:28:05;11;9;
31330;PMS5003;34067;39.548;-76.088;2023-03-03T12:30:42;11;10;
31330;PMS5003;34067;39.548;-76.088;2023-03-03T12:33:29;9;9;
31330;PMS5003;34067;39.548;-76.088;2023-03-03T12:36:09;9;8;
31330;PMS5003;34067;39.548;-76.088;2023-03-03T12:38:51;9;9;
31330;PMS5003;34067;39.548;-76.088;2023-03-03T12:41:29;12;10;
31330;PMS5003;34067;39.548;-76.088;2023-03-03T12:44:07;10;9;
31330;PMS5003;34067;39.548;-76.088;2023-03-03T12:46:51;11;10;
31330;PMS5003;34067;39.548;-76.088;2023-03-03T12:49:27;11;9;
31330;PMS5003;34067;39.548;-76.088;2023-03-03T12:52:07;16;12;
31330;PMS5003;34067;39.548;-76.088;2023-03-03T12:54:51;12;12;
31330;PMS5003;34067;39.548;-76.088;2023-03-03T12:57:31;8;8;
31330;PMS5003;34067;39.548;-76.088;2023-03-03T13:00:41;14;12;
31330;PMS5003;34067;39.548;-76.088;2023-03-03T13:03:21;9;8;
31330;PMS5003;34067;39.548;-76.088;2023-03-03T13:06:05;9;9;
31330;PMS5003;34067;39.548;-76.088;2023-03-03T13:08:46;8;8;
31330;PMS5003;34067;39.548;-76.088;2023-03-03T13:11:32;6;6;
31330;PMS5003;34067;39.548;-76.088;2023-03-03T13:14:14;11;8;
31330;PMS5003;34067;39.548;-76.088;2023-03-03T13:16:52;5;5;
31330;PMS5003;34067;39.548;-76.088;2023-03-03T13:19:31;7;7;
31330;PMS5003;34067;39.548;-76.088;2023-03-03T13:22:05;5;5;
31330;PMS5003;34067;39.548;-76.088;2023-03-03T13:24:42;7;6;
31330;PMS5003;34067;39.548;-76.088;2023-03-03T13:27:23;7;7;
31330;PMS5003;34067;39.548;-76.088;2023-03-03T13:29:55;6;6;
31330;PMS5003;34067;39.548;-76.088;2023-03-03T13:32:31;6;5;
31330;PMS5003;34067;39.548;-76.088;2023-03-03T13:35:15;5;5;
31330;PMS5003;34067;39.548;-76.088;2023-03-03T13:37:52;6;6;
31330;PMS5003;34067;39.548;-76.088;2023-03-03T13:40:22;7;7;
31330;PMS5003;34067;39.548;-76.088;2023-03-03T13:42:53;6;6;
31330;PMS5003;34067;39.548;-76.088;2023-03-03T13:45:29;9;7;
31330;PMS5003;34067;39.548;-76.088;2023-03-03T13:48:21;7;6;
31330;PMS5003;34067;39.548;-76.088;2023-03-03T13:51:02;48;47;
31330;PMS5003;34067;39.548;-76.088;2023-03-03T13:53:40;34;32;
31330;PMS5003;34067;39.548;-76.088;2023-03-03T13:56:22;15;15;
31330;PMS5003;34067;39.548;-76.088;2023-03-03T13:59:04;34;34;
31330;PMS5003;34067;39.548;-76.088;2023-03-03T14:01:43;42;42;
31330;PMS5003;34067;39.548;-76.088;2023-03-03T14:04:28;48;48;
31330;PMS5003;34067;39.548;-76.088;2023-03-03T14:07:02;31;30;
31330;PMS5003;34067;39.548;-76.088;2023-03-03T14:09:43;12;12;
31330;PMS5003;34067;39.548;-76.088;2023-03-03T14:12:25;20;20;
31330;PMS5003;34067;39.548;-76.088;2023-03-03T14:15:06;8;7;
31330;PMS5003;34067;39.548;-76.088;2023-03-03T14:17:47;7;7;
31330;PMS5003;34067;39.548;-76.088;2023-03-03T14:20:26;11;8;
31330;PMS5003;34067;39.548;-76.088;2023-03-03T14:22:57;8;7;
31330;PMS5003;34067;39.548;-76.088;2023-03-03T14:25:48;6;6;
31330;PMS5003;34067;39.548;-76.088;2023-03-03T14:28:23;11;10;
31330;PMS5003;34067;39.548;-76.088;2023-03-03T14:30:54;7;6;
31330;PMS5003;34067;39.548;-76.088;2023-03-03T14:33:28;9;7;
31330;PMS5003;34067;39.548;-76.088;2023-03-03T14:36:02;8;8;
31330;PMS5003;34067;39.548;-76.088;2023-03-03T14:38:36;8;8;
31330;PMS5003;34067;39.548;-76.088;2023-03-03T14:41:12;6;6;
31330;PMS5003;34067;39.548;-76.088;2023-03-03T14:43:44;8;7;
31330;PMS5003;34067;39.548;-76.088;2023-03-03T14:46:30;9;8;
31330;PMS5003;34067;39.548;-76.088;2023-03-03T14:49:03;8;7;
31330;PMS5003;34067;39.548;-76.088;2023-03-03T14:51:38;8;8;
31330;PMS5003;34067;39.548;-76.088;2023-03-03T14:54:13;7;6;
31330;PMS5003;34067;39.548;-76.088;2023-03-03T14:56:57;7;6;
31330;PMS5003;34067;39.548;-76.088;2023-03-03T14:59:29;6;6;
31330;PMS5003;34067;39.548;-76.088;2023-03-03T15:02:02;6;6;
31330;PMS5003;34067;39.548;-76.088;2023-03-03T15:05:15;6;5;
31330;PMS5003;34067;39.548;-76.088;2023-03-03T15:07:48;10;9;
31330;PMS5003;34067;39.548;-76.088;2023-03-03T15:10:27;6;4;
31330;PMS5003;34067;39.548;-76.088;2023-03-03T15:12:59;8;5;
31330;PMS5003;34067;39.548;-76.088;2023-03-03T15:16:00;8;7;
31330;PMS5003;34067;39.548;-76.088;2023-03-03T15:18:47;6;6;
31330;PMS5003;34067;39.548;-76.088;2023-03-03T15:21:41;6;5;
31330;PMS5003;34067;39.548;-76.088;2023-03-03T15:24:22;7;7;
31330;PMS5003;34067;39.548;-76.088;2023-03-03T15:26:58;5;5;
31330;PMS5003;34067;39.548;-76.088;2023-03-03T15:29:32;4;4;
31330;PMS5003;34067;39.548;-76.088;2023-03-03T15:32:07;7;6;
31330;PMS5003;34067;39.548;-76.088;2023-03-03T15:34:43;3;3;
31330;PMS5003;34067;39.548;-76.088;2023-03-03T15:37:19;4;4;
31330;PMS5003;34067;39.548;-76.088;2023-03-03T15:40:02;5;5;
31330;PMS5003;34067;39.548;-76.088;2023-03-03T15:42:41;4;4;
31330;PMS5003;34067;39.548;-76.088;2023-03-03T15:45:16;5;5;
31330;PMS5003;34067;39.548;-76.088;2023-03-03T15:47:56;3;3;
31330;PMS5003;34067;39.548;-76.088;2023-03-03T15:50:43;4;4;
31330;PMS5003;34067;39.548;-76.088;2023-03-03T15:53:18;4;4;
31330;PMS5003;34067;39.548;-76.088;2023-03-03T15:56:00;7;4;
31330;PMS5003;34067;39.548;-76.088;2023-03-03T15:58:43;3;3;
31330;PMS5003;34067;39.548;-76.088;2023-03-03T16:01:28;4;4;
31330;PMS5003;34067;39.548;-76.088;2023-03-03T16:04:04;5;5;
31330;PMS5003;34067;39.548;-76.088;2023-03-03T16:06:42;5;3;
31330;PMS5003;34067;39.548;-76.088;2023-03-03T16:09:23;5;5;
31330;PMS5003;34067;39.548;-76.088;2023-03-03T16:12:05;5;5;
31330;PMS5003;34067;39.548;-76.088;2023-03-03T16:14:46;4;3;
31330;PMS5003;34067;39.548;-76.088;2023-03-03T16:17:27;4;4;
31330;PMS5003;34067;39.548;-76.088;2023-03-03T16:20:08;5;5;
31330;PMS5003;34067;39.548;-76.088;2023-03-03T16:22:50;2;2;
31330;PMS5003;34067;39.548;-76.088;2023-03-03T16:25:30;3;3;
31330;PMS5003;34067;39.548;-76.088;2023-03-03T16:28:08;3;3;
31330;PMS5003;34067;39.548;-76.088;2023-03-03T16:30:46;2;2;
31330;PMS5003;34067;39.548;-76.088;2023-03-03T16:33:24;2;2;
31330;PMS5003;34067;39.548;-76.088;2023-03-03T16:36:01;3;2;
31330;PMS5003;34067;39.548;-76.088;2023-03-03T16:38:36;2;2;
31330;PMS5003;34067;39.548;-76.088;2023-03-03T16:41:09;2;2;
31330;PMS5003;34067;39.548;-76.088;2023-03-03T16:43:44;1;1;
31330;PMS5003;34067;39.548;-76.088;2023-03-03T16:46:21;3;2;